Terminal Aerodrome Forecast
Issued by NWS

Home | Current Version | Previous Version | Text Only | Print | Product List | Glossary On
Versions: 1 2 3 4 5 6 7 8 9 10 11 12 13 14 15 16 17
000
FTUS43 KGRR 052335
TAFLAN
TAF
KLAN 052335Z 0600/0624 18005KT P6SM SKC
     FM060700 VRB03KT 3SM BR SKC
     FM061000 00000KT 2SM BR SKC
     FM061200 20006KT 4SM BR SKC
     FM061400 20008G17KT P6SM SKC=

USA.gov is the U.S. government's official web portal to all federal, state and local government web resources and services.